Terminal Aerodrome Forecast
Issued by NWS

Home | Current Version | Previous Version | Graphics & Text | Print | Product List | Glossary On
Versions: 1 2 3 4 5 6 7 8 9 10 11 12 13 14 15 16 17 18 19 20 21
041
FTUS43 KLOT 200249 AAA
TAFDPA
TAF AMD
KDPA 200249Z 2003/2024 22006KT P6SM FEW250
     FM200800 22009KT P6SM SCT200
     FM201600 21015G24KT P6SM FEW200=

USA.gov is the U.S. government's official web portal to all federal, state and local government web resources and services.